EDT,Max TemperatureF,Mean TemperatureF,Min TemperatureF,Max Dew PointF,MeanDew PointF,Min DewpointF,Max Humidity, Mean Humidity, Min Humidity, Max Sea Level PressureIn, Mean Sea Level PressureIn, Min Sea Level PressureIn, Max VisibilityMiles, Mean VisibilityMiles, Min VisibilityMiles, Max Wind SpeedMPH, Mean Wind SpeedMPH, Max Gust SpeedMPH,PrecipitationIn, CloudCover, Events, WindDirDegrees
2012-8-1,87,76,64,68,65,63,93,69,45,29.96,29.89,29.84,10,10,10,12,2,14,0.00,2,,6
2012-8-2,89,77,65,70,65,59,100,70,40,29.96,29.93,29.89,10,6,0,8,1,13,0.00,2,Fog,174
2012-8-3,92,79,66,68,65,60,93,65,36,30.04,29.98,29.92,10,8,4,10,2,16,0.00,0,,137
2012-8-4,90,81,71,70,67,64,84,66,47,30.09,30.06,30.03,10,10,9,13,4,17,0.00,1,,178
2012-8-5,82,77,71,73,70,65,93,78,62,30.14,30.09,30.03,10,9,3,13,6,20,0.22,6,Rain-Thunderstorm,204
2012-8-6,85,76,66,70,66,59,100,72,43,30.16,30.11,30.03,10,10,7,9,2,14,0.00,5,,289
2012-8-7,86,75,63,66,62,57,100,72,43,30.06,30.02,29.97,10,9,6,9,2,13,0.00,1,,160
2012-8-8,90,76,61,70,63,60,97,68,38,30.04,29.99,29.94,10,8,1,15,3,25,0.46,2,Rain-Hail-Thunderstorm,254
2012-8-9,86,76,65,72,66,61,100,79,58,29.98,29.92,29.80,10,6,0,22,3,32,0.79,3,Fog-Rain-Thunderstorm,129
2012-8-10,81,74,66,66,64,61,93,74,54,29.89,29.77,29.72,10,9,5,14,5,23,0.17,6,Rain,191
2012-8-11,71,67,62,63,56,53,84,73,61,30.01,29.92,29.81,10,10,10,15,5,22,0.00,6,,215
2012-8-12,79,70,60,61,58,52,97,68,39,30.06,30.03,30.00,10,10,7,10,4,16,0.00,4,,227
2012-8-13,82,70,58,61,56,51,93,65,36,30.08,30.02,29.96,10,10,10,9,2,13,T,3,,186
2012-8-14,82,72,61,66,62,60,93,72,51,29.96,29.91,29.86,10,10,8,12,3,23,T,2,,196
2012-8-15,80,71,61,66,63,55,93,69,45,30.01,29.96,29.91,10,6,2,12,2,14,0.00,5,,350
2012-8-16,84,71,58,63,59,57,93,68,43,30.06,30.00,29.91,10,9,6,13,3,17,0.00,2,,234
2012-8-17,76,69,62,66,62,59,100,82,64,29.96,29.92,29.87,10,8,1,9,3,13,0.06,6,Rain,216
2012-8-18,79,70,60,63,58,47,100,66,32,30.02,29.97,29.91,10,6,1,9,2,14,0.00,5,,350
2012-8-19,83,71,59,60,56,50,84,60,36,29.96,29.90,29.84,10,10,10,17,2,22,0.00,2,,189
2012-8-20,80,69,57,62,58,52,100,71,42,30.02,29.92,29.88,10,10,10,10,2,15,0.01,5,Rain,161
2012-8-21,81,68,54,58,56,50,100,69,37,30.15,30.09,30.02,10,7,1,13,2,21,0.86,2,Rain-Thunderstorm,60
2012-8-22,82,68,53,60,55,52,100,68,36,30.19,30.15,30.12,10,5,0,8,1,13,0.00,1,Fog,2
2012-8-23,84,70,55,62,57,53,100,69,37,30.21,30.16,30.12,10,9,2,9,1,13,0.00,0,,73
2012-8-24,88,74,59,62,58,52,90,61,31,30.20,30.15,30.10,10,9,4,9,1,13,0.00,0,,102
2012-8-25,85,74,63,64,58,50,93,65,37,30.22,30.18,30.14,10,10,7,15,4,21,0.00,1,,100
2012-8-26,85,75,64,63,61,57,87,66,45,30.21,30.15,30.09,10,10,10,13,4,15,0.00,4,,140
2012-8-27,90,77,63,67,61,58,93,64,34,30.13,30.05,29.96,10,10,10,14,4,20,T,3,,216
2012-8-28,85,75,64,70,64,56,93,67,40,30.08,30.01,29.96,10,9,6,14,5,20,0.01,5,,304
2012-8-29,81,69,56,61,56,51,97,69,40,30.11,30.05,30.02,10,8,1,12,2,15,0.00,1,,350
2012-8-30,87,71,54,58,53,49,100,64,27,30.15,30.11,30.08,10,10,8,7,2,10,0.00,0,,329
2012-8-31,92,74,56,65,59,54,93,64,34,30.19,30.12,30.06,10,10,10,13,4,21,0.00,0,,223